createdAt,value
2018-01-12T00:00:01.959Z,38.45
2018-01-12T00:02:29.393Z,34.67
2018-01-12T00:04:56.816Z,37.92
2018-01-12T00:07:25.016Z,36.33
2018-01-12T00:09:53.228Z,37.10
2018-01-12T00:12:20.656Z,35.97
2018-01-12T00:14:48.835Z,37.35
2018-01-12T00:17:16.255Z,38.40
2018-01-12T00:19:43.711Z,35.45
2018-01-12T00:22:12.059Z,39.45
2018-01-12T00:24:40.251Z,34.42
2018-01-12T00:27:07.763Z,36.97
2018-01-12T00:29:35.235Z,37.45
2018-01-12T00:32:02.708Z,33.35
2018-01-12T00:34:30.176Z,42.00
2018-01-12T00:36:57.591Z,32.20
2018-01-12T00:39:25.019Z,36.05
2018-01-12T00:41:52.656Z,34.40
2018-01-12T00:44:20.848Z,32.22
2018-01-12T00:46:49.058Z,35.80
2018-01-12T00:49:16.471Z,32.55
2018-01-12T00:51:43.895Z,32.97
2018-01-12T00:54:11.319Z,36.22
2018-01-12T00:56:38.739Z,30.60
2018-01-12T00:59:06.168Z,30.48
2018-01-12T01:01:34.359Z,30.77
2018-01-12T01:04:02.556Z,32.53
2018-01-12T01:06:30.764Z,32.13
2018-01-12T01:08:58.191Z,29.50
2018-01-12T01:11:25.612Z,29.33
2018-01-12T01:13:53.068Z,30.48
2018-01-12T01:16:20.543Z,31.48
2018-01-12T01:18:48.027Z,28.25
2018-01-12T01:21:15.475Z,27.80
2018-01-12T01:23:42.903Z,29.55
2018-01-12T01:26:10.420Z,29.60
2018-01-12T01:28:37.847Z,28.83
2018-01-12T01:31:06.076Z,27.58
2018-01-12T01:33:33.508Z,27.95
2018-01-12T01:36:00.927Z,26.23
2018-01-12T01:38:28.391Z,26.55
2018-01-12T01:40:55.852Z,26.48
2018-01-12T01:43:23.324Z,28.10
2018-01-12T01:45:51.051Z,27.75
2018-01-12T01:48:30.343Z,27.40
2018-01-12T01:50:57.816Z,30.05
2018-01-12T01:53:26.051Z,26.95
2018-01-12T01:55:53.468Z,27.10
2018-01-12T01:58:20.904Z,26.10
2018-01-12T02:00:48.408Z,25.62
2018-01-12T02:03:15.835Z,29.65
2018-01-12T02:05:43.255Z,25.37
2018-01-12T02:08:10.727Z,30.27
2018-01-12T02:10:38.143Z,30.73
2018-01-12T02:13:05.664Z,26.33
2018-01-12T02:15:33.079Z,26.37
2018-01-12T02:18:00.515Z,25.58
2018-01-12T02:20:27.964Z,29.83
2018-01-12T02:22:56.304Z,29.25
2018-01-12T02:25:23.932Z,27.92
2018-01-12T02:27:52.124Z,30.25
2018-01-12T02:30:19.552Z,28.50
2018-01-12T02:32:47.735Z,27.90
2018-01-12T02:35:15.956Z,27.13
2018-01-12T02:37:43.371Z,28.20
2018-01-12T02:40:10.804Z,30.88
2018-01-12T02:42:38.228Z,26.67
2018-01-12T02:45:05.665Z,25.62
2018-01-12T02:47:33.099Z,26.05
2018-01-12T02:50:00.532Z,31.25
2018-01-12T02:52:27.947Z,25.37
2018-01-12T02:54:55.417Z,25.02
2018-01-12T02:57:22.836Z,28.38
2018-01-12T02:59:50.264Z,28.12
2018-01-12T03:02:17.679Z,24.50
2018-01-12T03:04:45.875Z,30.95
2018-01-12T03:07:14.088Z,23.27
2018-01-12T03:09:41.563Z,23.38
2018-01-12T03:12:08.992Z,24.67
2018-01-12T03:14:36.504Z,32.25
2018-01-12T03:17:03.927Z,30.27
2018-01-12T03:19:31.435Z,26.80
2018-01-12T03:21:58.916Z,28.10
2018-01-12T03:24:26.344Z,29.33
2018-01-12T03:26:53.851Z,23.42
2018-01-12T03:29:21.284Z,24.52
2018-01-12T03:31:49.508Z,25.33
2018-01-12T03:34:16.979Z,27.45
2018-01-12T03:36:44.450Z,27.23
2018-01-12T03:39:11.924Z,25.45
2018-01-12T03:41:39.344Z,27.33
2018-01-12T03:44:06.860Z,29.37
2018-01-12T03:46:34.292Z,27.37
2018-01-12T03:49:02.518Z,26.58
2018-01-12T03:51:29.935Z,32.90
2018-01-12T03:53:57.359Z,26.30
2018-01-12T03:56:24.783Z,27.20
2018-01-12T03:58:53.003Z,25.50
2018-01-12T04:01:20.420Z,25.23
2018-01-12T04:03:47.851Z,24.50
2018-01-12T04:06:15.267Z,24.33
2018-01-12T04:08:42.760Z,24.23
2018-01-12T04:11:10.111Z,26.05
2018-01-12T04:13:38.303Z,25.98
2018-01-12T04:16:06.496Z,26.30
2018-01-12T04:18:34.708Z,24.80
2018-01-12T04:21:02.136Z,30.45
2018-01-12T04:23:29.655Z,28.73
2018-01-12T04:25:57.124Z,26.00
2018-01-12T04:28:24.587Z,27.52
2018-01-12T04:30:52.063Z,26.55
2018-01-12T04:33:19.532Z,26.95
2018-01-12T04:35:46.999Z,26.90
2018-01-12T04:38:14.419Z,27.42
2018-01-12T04:40:41.937Z,28.30
2018-01-12T04:43:09.411Z,31.40
2018-01-12T04:45:36.844Z,26.35
2018-01-12T04:48:05.064Z,27.83
2018-01-12T04:50:32.496Z,28.95
2018-01-12T04:52:59.911Z,25.42
2018-01-12T04:55:27.344Z,27.65
2018-01-12T04:57:55.536Z,26.95
2018-01-12T05:00:23.771Z,30.25
2018-01-12T05:02:51.192Z,26.52
2018-01-12T05:05:19.408Z,33.03
2018-01-12T05:07:47.022Z,28.60
2018-01-12T05:10:15.245Z,28.17
2018-01-12T05:12:43.461Z,32.05
2018-01-12T05:15:10.924Z,25.83
2018-01-12T05:17:38.400Z,24.98
2018-01-12T05:20:05.833Z,28.25
2018-01-12T05:22:34.052Z,27.55
2018-01-12T05:25:01.519Z,25.50
2018-01-12T05:27:28.989Z,30.48
2018-01-12T05:29:56.416Z,28.70
2018-01-12T05:32:23.834Z,23.80
2018-01-12T05:34:51.278Z,26.27
2018-01-12T05:37:19.479Z,31.77
2018-01-12T05:39:46.911Z,32.45
2018-01-12T05:42:14.331Z,27.15
2018-01-12T05:44:41.755Z,28.55
2018-01-12T05:47:09.974Z,32.60
2018-01-12T05:49:37.406Z,34.10
2018-01-12T05:52:04.824Z,31.67
2018-01-12T05:54:32.280Z,39.55
2018-01-12T05:56:59.755Z,29.70
2018-01-12T05:59:27.246Z,28.15
2018-01-12T06:02:06.516Z,32.15
2018-01-12T06:04:45.794Z,28.17
2018-01-12T06:07:13.979Z,30.52
2018-01-12T06:09:42.192Z,29.75
2018-01-12T06:12:09.612Z,30.83
2018-01-12T06:14:38.564Z,28.87
2018-01-12T06:17:06.036Z,29.70
2018-01-12T06:19:33.468Z,26.02
2018-01-12T06:22:01.692Z,30.65
2018-01-12T06:24:29.159Z,28.50
2018-01-12T06:26:56.627Z,36.33
2018-01-12T06:29:24.064Z,31.25
2018-01-12T06:31:52.247Z,30.50
2018-01-12T06:34:20.439Z,32.50
2018-01-12T06:36:48.660Z,28.27
2018-01-12T06:39:16.093Z,32.45
2018-01-12T06:41:44.279Z,33.00
2018-01-12T06:44:12.504Z,32.10
2018-01-12T06:46:39.919Z,38.42
2018-01-12T06:49:07.343Z,36.38
2018-01-12T06:54:12.620Z,35.53
2018-01-12T06:56:40.096Z,34.28
2018-01-12T06:59:07.526Z,36.95
2018-01-12T07:01:34.955Z,32.45
2018-01-12T07:04:02.397Z,33.47
2018-01-12T07:06:29.832Z,31.20
2018-01-12T07:11:31.652Z,37.13
2018-01-12T07:13:59.892Z,34.70
2018-01-12T07:16:28.036Z,33.65
2018-01-12T07:18:55.447Z,32.55
2018-01-12T07:21:34.655Z,35.30
2018-01-12T07:24:02.083Z,30.02
2018-01-12T07:26:29.596Z,33.55
2018-01-12T07:28:57.067Z,35.03
2018-01-12T07:31:24.536Z,35.10
2018-01-12T07:33:51.960Z,33.58
2018-01-12T07:36:19.480Z,32.97
2018-01-12T07:38:46.954Z,33.10
2018-01-12T07:41:14.412Z,33.67
2018-01-12T07:43:41.888Z,34.58
2018-01-12T07:46:09.306Z,35.70
2018-01-12T07:48:36.832Z,37.67
2018-01-12T07:51:04.259Z,34.45
2018-01-12T07:53:32.483Z,33.97
2018-01-12T07:55:59.916Z,37.13
2018-01-12T07:58:27.421Z,36.75
2018-01-12T08:01:00.548Z,40.33
2018-01-12T08:03:27.976Z,35.83
2018-01-12T08:05:56.179Z,37.42
2018-01-12T08:08:23.600Z,34.72
2018-01-12T08:10:51.120Z,40.42
2018-01-12T08:13:18.538Z,36.08
2018-01-12T08:15:45.970Z,38.13
2018-01-12T08:18:13.395Z,35.95
2018-01-12T08:20:41.586Z,38.58
2018-01-12T08:23:09.779Z,38.10
2018-01-12T08:25:37.971Z,33.85
2018-01-12T08:28:05.423Z,35.03
2018-01-12T08:30:32.841Z,34.70
2018-01-12T08:33:00.263Z,39.60
2018-01-12T08:35:28.452Z,35.40
2018-01-12T08:37:56.635Z,39.88
2018-01-12T08:40:24.852Z,38.10
2018-01-12T08:42:52.276Z,38.47
2018-01-12T08:45:19.787Z,36.40
2018-01-12T08:47:47.260Z,34.20
2018-01-12T08:50:14.730Z,36.45
2018-01-12T08:52:42.203Z,33.35
2018-01-12T08:55:09.627Z,34.88
2018-01-12T08:57:37.047Z,37.22
2018-01-12T09:00:04.485Z,43.65
2018-01-12T09:02:32.655Z,42.85
2018-01-12T09:05:00.098Z,42.33
2018-01-12T09:07:27.540Z,40.42
2018-01-12T09:09:54.967Z,53.97
2018-01-12T09:12:23.200Z,39.65
2018-01-12T09:14:53.083Z,41.83
2018-01-12T09:17:48.119Z,43.60
2018-01-12T09:20:17.603Z,42.53
2018-01-12T09:22:48.038Z,48.25
2018-01-12T09:25:23.343Z,41.42
2018-01-12T09:27:50.758Z,41.83
2018-01-12T09:30:18.283Z,50.30
2018-01-12T09:32:45.706Z,51.92
2018-01-12T09:35:13.138Z,50.20
2018-01-12T09:37:40.567Z,51.20
2018-01-12T09:40:27.676Z,53.53
2018-01-12T09:42:55.095Z,55.25
2018-01-12T09:45:22.528Z,57.55
2018-01-12T09:51:00.435Z,56.85
2018-01-12T09:53:27.881Z,62.45
2018-01-12T09:55:55.306Z,56.47
2018-01-12T09:58:22.831Z,55.60
2018-01-12T10:01:06.032Z,61.92
2018-01-12T10:03:34.252Z,57.25
2018-01-12T10:06:01.679Z,52.97
2018-01-12T10:08:29.187Z,60.58
2018-01-12T10:10:56.611Z,60.30
2018-01-12T10:13:24.128Z,55.97
2018-01-12T10:15:51.550Z,57.85
2018-01-12T10:18:32.409Z,59.10
2018-01-12T10:21:11.831Z,59.97
2018-01-12T10:23:39.299Z,60.47
2018-01-12T10:26:06.775Z,53.90
2018-01-12T10:28:34.248Z,50.63
2018-01-12T10:31:01.675Z,55.12
2018-01-12T10:33:42.559Z,60.70
2018-01-12T10:36:10.067Z,53.35
2018-01-12T10:38:38.459Z,58.00
2018-01-12T10:41:17.895Z,63.95
2018-01-12T10:43:46.084Z,61.25
2018-01-12T10:46:28.523Z,53.75
2018-01-12T10:48:57.167Z,57.30
2018-01-12T10:51:37.911Z,58.38
2018-01-12T10:54:05.331Z,55.60
2018-01-12T10:56:33.759Z,53.50
2018-01-12T10:59:01.227Z,64.70
2018-01-12T11:01:28.647Z,62.30
2018-01-12T11:03:56.079Z,54.20
2018-01-12T11:06:23.540Z,59.78
2018-01-12T11:08:50.968Z,56.75
2018-01-12T11:11:18.382Z,60.15
2018-01-12T11:13:45.842Z,66.20
2018-01-12T11:16:13.311Z,65.72
2018-01-12T11:18:40.787Z,68.97
2018-01-12T11:21:08.208Z,65.70
2018-01-12T11:23:35.727Z,69.32
2018-01-12T11:26:03.148Z,66.20
2018-01-12T11:28:30.668Z,77.28
2018-01-12T11:30:58.091Z,69.45
2018-01-12T11:33:25.603Z,66.12
2018-01-12T11:35:53.076Z,67.87
2018-01-12T11:38:20.544Z,74.80
2018-01-12T11:40:47.971Z,76.15
2018-01-12T11:43:15.391Z,71.03
2018-01-12T11:45:42.851Z,75.53
2018-01-12T11:48:10.280Z,67.70
2018-01-12T11:50:38.467Z,73.28
2018-01-12T11:53:05.890Z,69.75
2018-01-12T11:55:33.315Z,76.80
2018-01-12T11:58:01.512Z,75.45
2018-01-12T12:00:29.692Z,77.62
2018-01-12T12:02:57.883Z,80.38
2018-01-12T12:05:26.096Z,67.72
2018-01-12T12:07:53.527Z,81.65
2018-01-12T12:10:21.707Z,81.07
2018-01-12T12:12:49.935Z,77.70
2018-01-12T12:15:17.356Z,80.70
2018-01-12T12:17:44.788Z,73.53
2018-01-12T12:20:12.207Z,76.95
2018-01-12T12:22:40.404Z,78.30
2018-01-12T12:25:08.612Z,69.37
2018-01-12T12:27:36.048Z,76.45
2018-01-12T12:30:04.226Z,70.03
2018-01-12T12:32:31.745Z,67.60
2018-01-12T12:34:59.159Z,66.62
2018-01-12T12:37:26.595Z,66.30
2018-01-12T12:39:54.019Z,69.78
2018-01-12T12:42:22.231Z,68.93
2018-01-12T12:44:49.703Z,62.10
2018-01-12T12:47:17.127Z,60.67
2018-01-12T12:49:44.550Z,65.47
2018-01-12T12:52:11.971Z,53.87
2018-01-12T12:54:39.394Z,57.10
2018-01-12T12:57:06.811Z,52.03
2018-01-12T12:59:35.003Z,63.63
2018-01-12T13:02:03.223Z,58.08
2018-01-12T13:04:30.651Z,56.08
2018-01-12T13:06:58.163Z,54.28
2018-01-12T13:09:25.637Z,62.20
2018-01-12T13:11:53.060Z,57.78
2018-01-12T13:14:20.483Z,57.62
2018-01-12T13:16:47.911Z,54.38
2018-01-12T13:19:16.120Z,54.53
2018-01-12T13:21:43.535Z,59.08
2018-01-12T13:24:10.959Z,59.75
2018-01-12T13:26:38.432Z,57.75
2018-01-12T13:29:05.903Z,54.92
2018-01-12T13:31:33.370Z,53.30
2018-01-12T13:34:00.791Z,56.30
2018-01-12T13:36:29.715Z,56.80
2018-01-12T13:38:57.911Z,58.75
2018-01-12T13:41:26.095Z,54.05
2018-01-12T13:43:54.305Z,64.80
2018-01-12T13:46:21.723Z,62.58
2018-01-12T13:48:49.153Z,62.62
2018-01-12T13:51:16.611Z,66.85
2018-01-12T13:53:44.043Z,63.92
2018-01-12T13:56:11.551Z,62.95
2018-01-12T13:58:38.984Z,57.10
2018-01-12T14:01:06.499Z,61.15
2018-01-12T14:03:33.922Z,62.65
2018-01-12T14:06:01.347Z,67.57
2018-01-12T14:08:28.796Z,59.33
2018-01-12T14:10:56.263Z,56.50
2018-01-12T14:13:23.744Z,62.17
2018-01-12T14:15:51.211Z,58.83
2018-01-12T14:18:18.644Z,53.95
2018-01-12T14:20:46.832Z,64.40
2018-01-12T14:23:15.028Z,57.42
2018-01-12T14:25:43.211Z,54.15
2018-01-12T14:28:11.407Z,52.22
2018-01-12T14:30:39.612Z,58.42
2018-01-12T14:33:07.044Z,52.38
2018-01-12T14:35:34.459Z,58.38
2018-01-12T14:38:01.921Z,51.22
2018-01-12T14:40:29.340Z,57.92
2018-01-12T14:42:56.876Z,51.70
2018-01-12T14:45:24.331Z,49.17
2018-01-12T14:47:51.895Z,47.13
2018-01-12T14:50:19.366Z,40.83
2018-01-12T14:52:46.838Z,41.42
2018-01-12T14:55:15.037Z,48.33
2018-01-12T14:57:42.500Z,36.80
2018-01-12T15:00:09.923Z,39.58
2018-01-12T15:02:37.343Z,36.58
2018-01-12T15:05:04.775Z,33.35
2018-01-12T15:07:32.959Z,39.55
2018-01-12T15:10:01.159Z,37.13
2018-01-12T15:12:29.360Z,34.92
2018-01-12T15:14:56.842Z,36.45
2018-01-12T15:17:24.259Z,36.78
2018-01-12T15:19:51.684Z,40.08
2018-01-12T15:22:19.106Z,34.17
2018-01-12T15:24:47.299Z,35.58
2018-01-12T15:27:15.487Z,32.03
2018-01-12T15:29:43.686Z,32.30
2018-01-12T15:32:11.107Z,37.83
2018-01-12T15:34:38.531Z,30.73
2018-01-12T15:37:05.950Z,34.58
2018-01-12T15:39:33.476Z,34.92
2018-01-12T15:42:00.956Z,36.22
2018-01-12T15:44:28.379Z,33.90
2018-01-12T15:46:56.608Z,34.63
2018-01-12T15:49:24.075Z,34.65
2018-01-12T15:51:51.491Z,37.80
2018-01-12T15:54:18.924Z,32.83
2018-01-12T15:56:46.379Z,32.35
2018-01-12T15:59:13.815Z,36.72
2018-01-12T16:01:41.999Z,31.08
2018-01-12T16:04:10.192Z,34.53
2018-01-12T16:06:38.382Z,33.40
2018-01-12T16:09:06.575Z,34.90
2018-01-12T16:11:34.788Z,36.35
2018-01-12T16:14:02.216Z,37.90
2018-01-12T16:16:29.635Z,37.40
2018-01-12T16:18:57.064Z,35.75
2018-01-12T16:21:25.252Z,31.83
2018-01-12T16:23:53.672Z,30.50
2018-01-12T16:26:21.089Z,28.77
2018-01-12T16:28:50.039Z,27.00
2018-01-12T16:31:17.467Z,30.90
2018-01-12T16:33:44.984Z,31.42
2018-01-12T16:36:12.416Z,27.10
2018-01-12T16:38:39.833Z,26.02
2018-01-12T16:41:07.295Z,32.33
2018-01-12T16:43:34.755Z,26.20
2018-01-12T16:46:02.179Z,28.92
2018-01-12T16:48:29.604Z,27.02
2018-01-12T16:50:57.028Z,30.10
2018-01-12T16:53:24.448Z,26.90
2018-01-12T16:55:51.874Z,28.62
2018-01-12T16:58:20.059Z,26.30
2018-01-12T17:00:48.255Z,30.27
2018-01-12T17:03:16.461Z,28.92
2018-01-12T17:05:43.891Z,25.00
2018-01-12T17:08:11.404Z,25.42
2018-01-12T17:10:38.827Z,24.37
2018-01-12T17:13:06.340Z,25.30
2018-01-12T17:15:33.770Z,25.12
2018-01-12T17:18:01.287Z,28.23
2018-01-12T17:20:28.719Z,26.80
2018-01-12T17:22:56.940Z,24.83
2018-01-12T17:25:24.368Z,25.17
2018-01-12T17:27:51.980Z,28.58
2018-01-12T17:30:19.452Z,27.62
2018-01-12T17:32:46.876Z,24.87
2018-01-12T17:35:14.304Z,23.38
2018-01-12T17:37:41.723Z,24.87
2018-01-12T17:40:09.920Z,24.87
2018-01-12T17:42:38.103Z,22.90
2018-01-12T17:45:05.608Z,23.17
2018-01-12T17:47:33.028Z,23.23
2018-01-12T17:50:00.464Z,27.65
2018-01-12T17:52:27.883Z,25.83
2018-01-12T17:54:56.079Z,31.73
2018-01-12T17:57:24.264Z,26.00
2018-01-12T17:59:52.464Z,28.40
2018-01-12T18:02:19.878Z,30.65
2018-01-12T18:04:47.307Z,29.37
2018-01-12T18:07:14.772Z,27.30
2018-01-12T18:09:42.491Z,34.05
2018-01-12T18:12:09.907Z,26.12
2018-01-12T18:14:37.387Z,28.77
2018-01-12T18:17:04.807Z,31.05
2018-01-12T18:19:32.327Z,28.83
2018-01-12T18:21:59.802Z,28.87
2018-01-12T18:24:27.272Z,28.10
2018-01-12T18:26:54.704Z,31.23
2018-01-12T18:29:22.892Z,29.98
2018-01-12T18:31:51.092Z,31.52
2018-01-12T18:34:19.271Z,29.48
2018-01-12T18:36:47.483Z,31.65
2018-01-12T18:39:14.899Z,28.35
2018-01-12T18:41:42.331Z,28.38
2018-01-12T18:44:09.748Z,27.98
2018-01-12T18:46:37.236Z,29.55
2018-01-12T18:49:05.447Z,32.53
2018-01-12T18:51:32.916Z,30.83
2018-01-12T18:54:00.376Z,28.00
2018-01-12T18:56:27.826Z,29.75
2018-01-12T18:58:56.062Z,32.22
2018-01-12T19:01:23.515Z,29.65
2018-01-12T19:03:50.940Z,31.77
2018-01-12T19:06:18.448Z,32.67
2018-01-12T19:08:45.924Z,34.47
2018-01-12T19:11:13.391Z,35.33
2018-01-12T19:13:40.808Z,36.85
2018-01-12T19:16:08.242Z,33.70
2018-01-12T19:18:35.715Z,34.83
2018-01-12T19:21:03.143Z,35.55
2018-01-12T19:23:31.330Z,33.30
2018-01-12T19:25:59.524Z,46.83
2018-01-12T19:28:27.707Z,45.45
2018-01-12T19:30:55.899Z,41.97
2018-01-12T19:33:23.383Z,35.97
2018-01-12T19:35:50.815Z,37.78
2018-01-12T19:38:18.232Z,35.92
2018-01-12T19:40:45.663Z,37.30
2018-01-12T19:43:13.883Z,38.97
2018-01-12T19:45:41.348Z,40.65
2018-01-12T19:48:08.823Z,36.05
2018-01-12T19:50:36.255Z,35.17
2018-01-12T19:53:04.443Z,35.25
2018-01-12T19:55:32.635Z,38.13
2018-01-12T19:58:00.851Z,41.70
2018-01-12T20:00:28.315Z,40.10
2018-01-12T20:02:56.639Z,36.80
2018-01-12T20:05:24.075Z,38.45
2018-01-12T20:07:51.543Z,39.97
2018-01-12T20:10:19.014Z,41.42
2018-01-12T20:12:47.171Z,37.38
2018-01-12T20:15:15.392Z,44.65
2018-01-12T20:17:43.579Z,46.15
2018-01-12T20:20:11.004Z,43.97
2018-01-12T20:22:38.519Z,44.92
2018-01-12T20:25:05.990Z,47.88
2018-01-12T20:27:33.455Z,46.72
2018-01-12T20:30:00.927Z,48.08
2018-01-12T20:32:28.395Z,46.33
2018-01-12T20:34:55.871Z,45.90
2018-01-12T20:37:23.335Z,46.97
2018-01-12T20:39:50.800Z,56.28
2018-01-12T20:42:18.275Z,52.13
2018-01-12T20:44:45.744Z,46.05
2018-01-12T20:47:13.176Z,52.92
2018-01-12T20:49:40.687Z,53.55
2018-01-12T20:52:08.107Z,49.70
2018-01-12T20:54:35.623Z,54.20
2018-01-12T20:57:03.095Z,54.88
2018-01-12T20:59:30.516Z,50.45
2018-01-12T21:01:57.947Z,52.85
2018-01-12T21:04:25.407Z,54.60
2018-01-12T21:06:52.839Z,54.83
2018-01-12T21:09:21.024Z,47.58
2018-01-12T21:11:49.242Z,56.60
2018-01-12T21:14:16.667Z,56.10
2018-01-12T21:16:44.179Z,57.67
2018-01-12T21:19:11.595Z,61.03
2018-01-12T21:21:39.119Z,50.55
2018-01-12T21:24:06.539Z,55.67
2018-01-12T21:26:33.975Z,57.35
2018-01-12T21:29:01.423Z,48.60
2018-01-12T21:31:28.859Z,54.05
2018-01-12T21:33:56.367Z,58.15
2018-01-12T21:36:23.791Z,58.40
2018-01-12T21:38:52.718Z,48.42
2018-01-12T21:41:20.935Z,63.42
2018-01-12T21:43:48.355Z,54.70
2018-01-12T21:46:15.779Z,52.60
2018-01-12T21:48:43.204Z,56.85
2018-01-12T21:51:11.400Z,55.75
2018-01-12T21:53:39.583Z,52.35
2018-01-12T21:56:07.805Z,54.08
2018-01-12T21:58:35.267Z,53.28
2018-01-12T22:01:02.695Z,56.15
2018-01-12T22:03:30.115Z,56.42
2018-01-12T22:05:57.544Z,50.50
2018-01-12T22:08:25.727Z,58.72
2018-01-12T22:10:53.916Z,48.65
2018-01-12T22:13:22.107Z,61.75
2018-01-12T22:15:50.308Z,62.90
2018-01-12T22:18:17.731Z,59.30
2018-01-12T22:20:45.155Z,54.83
2018-01-12T22:23:12.624Z,57.33
2018-01-12T22:25:40.043Z,64.07
2018-01-12T22:28:07.475Z,62.78
2018-01-12T22:30:34.895Z,64.85
2018-01-12T22:33:02.327Z,59.55
2018-01-12T22:35:29.752Z,63.03
2018-01-12T22:37:57.963Z,63.87
2018-01-12T22:40:25.435Z,56.25
2018-01-12T22:42:52.867Z,56.50
2018-01-12T22:45:21.061Z,58.42
2018-01-12T22:47:49.277Z,61.22
2018-01-12T22:50:16.739Z,57.10
2018-01-12T22:52:44.191Z,57.13
2018-01-12T22:55:12.412Z,61.08
2018-01-12T22:57:39.843Z,59.60
2018-01-12T23:00:07.263Z,60.12
2018-01-12T23:02:34.688Z,57.58
2018-01-12T23:05:02.891Z,62.42
2018-01-12T23:07:30.324Z,63.22
2018-01-12T23:09:57.739Z,69.75
2018-01-12T23:12:25.175Z,58.87
2018-01-12T23:14:53.360Z,67.55
2018-01-12T23:17:21.552Z,65.12
2018-01-12T23:19:49.765Z,57.88
2018-01-12T23:22:17.191Z,61.50
2018-01-12T23:24:44.695Z,62.15
2018-01-12T23:27:12.118Z,56.08
2018-01-12T23:29:39.636Z,65.97
2018-01-12T23:32:07.077Z,63.38
2018-01-12T23:34:34.579Z,69.30
2018-01-12T23:37:02.003Z,69.82
2018-01-12T23:39:30.934Z,72.28
2018-01-12T23:41:59.123Z,67.78
2018-01-12T23:44:26.608Z,65.90
2018-01-12T23:46:54.083Z,66.20
2018-01-12T23:49:21.501Z,70.62
2018-01-12T23:51:49.740Z,60.83
2018-01-12T23:54:17.155Z,70.90
2018-01-12T23:56:44.680Z,62.58
2018-01-12T23:59:12.099Z,68.87
